Time;durP1;ratioP1;P1;durP2;ratioP2;P2;SDS_P1;SDS_P2;PMS_P1;PMS_P2;Temp;Humidity;BMP_temperature;BMP_pressure;BME280_temperature;BME280_humidity;BME280_pressure;Samples;Min_cycle;Max_cycle;Signal;HPM_P1;HPM_P2
2022/06/10 00:00:17;;;;;;;12.27;9.88;;;;;;;21.06;85.69;98954.38;5087853;28;20311;-73
2022/06/10 00:02:44;;;;;;;12.20;9.93;;;;;;;21.02;86.01;98948.66;5084436;28;20031;-73
2022/06/10 00:05:12;;;;;;;11.25;9.50;;;;;;;20.84;86.85;98937.38;5093557;28;20036;-73
2022/06/10 00:07:38;;;;;;;13.77;9.65;;;;;;;20.90;87.10;98955.22;5087993;28;20381;-73
2022/06/10 00:10:04;;;;;;;11.80;10.00;;;;;;;20.91;86.15;98959.53;5084198;28;20028;-73
2022/06/10 00:12:30;;;;;;;11.65;9.90;;;;;;;20.89;86.38;98959.78;5088552;28;20039;-73
2022/06/10 00:14:55;;;;;;;13.88;9.55;;;;;;;21.01;86.58;98959.69;5084203;28;20026;-73
2022/06/10 00:17:21;;;;;;;14.23;10.85;;;;;;;21.12;87.71;98971.41;5071158;28;20040;-73
2022/06/10 00:19:46;;;;;;;12.82;10.40;;;;;;;21.19;87.16;98967.47;5084411;28;20036;-73
2022/06/10 00:22:11;;;;;;;14.90;9.90;;;;;;;21.30;86.11;98968.44;5089250;28;20337;-73
2022/06/10 00:24:37;;;;;;;11.57;10.10;;;;;;;21.30;86.14;98969.25;5083511;28;20314;-73
2022/06/10 00:27:03;;;;;;;17.58;10.60;;;;;;;21.38;86.01;98976.06;5087023;28;20326;-73
2022/06/10 00:29:28;;;;;;;11.43;10.00;;;;;;;21.45;84.85;98981.28;5085640;28;20210;-73
2022/06/10 00:31:54;;;;;;;14.43;9.68;;;;;;;21.49;84.34;98980.50;5067936;28;20027;-73
2022/06/10 00:34:19;;;;;;;11.60;9.32;;;;;;;21.49;84.09;98982.41;5087772;28;20024;-73
2022/06/10 00:36:45;;;;;;;13.43;9.68;;;;;;;21.48;83.17;98988.84;5086507;28;20032;-73
2022/06/10 00:39:10;;;;;;;10.23;8.93;;;;;;;21.40;83.00;98989.28;5086990;28;20044;-73
2022/06/10 00:41:44;;;;;;;11.45;9.05;;;;;;;21.31;83.71;98978.94;5084309;28;20039;-73
2022/06/10 00:44:31;;;;;;;17.38;9.73;;;;;;;21.37;83.21;98982.53;5082968;28;20114;-73
2022/06/10 00:46:57;;;;;;;13.80;9.88;;;;;;;21.37;82.87;98973.63;5085522;28;20062;-73
2022/06/10 00:49:23;;;;;;;18.45;10.40;;;;;;;21.26;83.43;98965.44;5083940;28;20028;-73
2022/06/10 00:51:53;;;;;;;14.55;9.32;;;;;;;21.27;83.56;98968.94;5083696;28;20036;-73
2022/06/10 00:54:27;;;;;;;14.60;8.95;;;;;;;21.29;83.79;98973.00;5088311;28;20366;-73
2022/06/10 00:56:59;;;;;;;;;;;;;;;21.32;83.44;98975.19;5083955;28;20051;-73
2022/06/10 00:59:29;;;;;;;14.32;8.73;;;;;;;21.29;83.37;98969.50;5088596;28;19924;-73
2022/06/10 01:02:01;;;;;;;16.08;9.63;;;;;;;21.34;82.75;98969.56;5085478;28;20027;-73
2022/06/10 01:04:28;;;;;;;16.20;9.52;;;;;;;21.37;82.87;98971.75;5086838;28;20070;-73
2022/06/10 01:06:53;;;;;;;14.38;9.23;;;;;;;21.36;82.43;98962.03;5067730;28;20032;-73
2022/06/10 01:09:19;;;;;;;15.05;10.25;;;;;;;21.31;82.94;98956.59;5092807;28;20386;-73
2022/06/10 01:12:04;;;;;;;19.08;10.57;;;;;;;21.38;82.87;98959.91;5086948;28;20031;-73
2022/06/10 01:14:48;;;;;;;19.08;10.15;;;;;;;21.43;82.47;98962.66;5091664;28;20321;-73
2022/06/10 01:17:31;;;;;;;18.48;9.80;;;;;;;21.43;82.66;98959.97;5087453;28;20034;-73
2022/06/10 01:20:19;;;;;;;13.68;9.63;;;;;;;21.54;82.68;98960.91;5089222;28;20310;-73
2022/06/10 01:22:53;;;;;;;15.73;9.85;;;;;;;21.52;83.29;98969.25;5086100;28;20257;-73
2022/06/10 01:25:41;;;;;;;15.48;10.23;;;;;;;21.44;84.38;98975.06;5091091;28;20027;-73
2022/06/10 01:28:27;;;;;;;12.82;10.32;;;;;;;21.43;84.13;98969.94;5088377;28;20055;-73
2022/06/10 01:31:01;;;;;;;16.02;11.02;;;;;;;21.43;82.62;98959.97;5088940;28;20043;-73
2022/06/10 01:33:53;;;;;;;16.70;11.20;;;;;;;21.37;83.72;98973.63;5086219;28;20089;-73
2022/06/10 01:36:37;;;;;;;14.48;11.30;;;;;;;21.34;83.93;98969.56;5088756;28;20329;-73
2022/06/10 01:39:07;;;;;;;13.20;10.68;;;;;;;21.28;84.16;98978.63;5088405;28;20051;-73
2022/06/10 01:41:42;;;;;;;13.65;10.57;;;;;;;21.32;84.93;98977.06;5089172;28;20062;-73
2022/06/10 01:44:16;;;;;;;15.93;11.05;;;;;;;21.29;85.81;98985.66;5087901;28;20337;-73
2022/06/10 01:47:08;;;;;;;14.52;10.10;;;;;;;21.45;85.31;98989.34;5090406;28;20046;-73
2022/06/10 01:49:44;;;;;;;14.73;11.15;;;;;;;21.45;85.90;98989.34;5064295;28;20107;-73
2022/06/10 01:52:23;;;;;;;13.50;10.82;;;;;;;21.44;86.52;98991.22;5088690;28;20036;-73
2022/06/10 01:54:58;;;;;;;14.27;11.65;;;;;;;21.53;85.98;98989.72;5088294;28;20319;-73
2022/06/10 01:57:31;;;;;;;12.88;11.15;;;;;;;21.53;84.34;98984.34;5088203;28;20391;-73
2022/06/10 02:00:23;;;;;;;15.35;11.40;;;;;;;21.52;84.94;98989.97;5088507;28;20364;-73
2022/06/10 02:02:56;;;;;;;16.85;11.98;;;;;;;21.49;85.96;98996.69;5069622;28;20077;-73
2022/06/10 02:05:24;;;;;;;16.80;12.38;;;;;;;21.42;85.74;98990.66;5085531;28;20104;-73
2022/06/10 02:07:58;;;;;;;19.83;12.32;;;;;;;21.42;85.79;98997.94;5248228;22;20357;-66
2022/06/10 02:10:33;;;;;;;18.13;13.75;;;;;;;21.36;86.17;98988.97;5084918;28;20040;-66
2022/06/10 02:13:17;;;;;;;19.27;13.48;;;;;;;21.19;86.22;98983.63;5081508;28;20024;-66
2022/06/10 02:15:57;;;;;;;18.08;14.35;;;;;;;21.06;86.40;98983.16;5078738;28;20041;-67
2022/06/10 02:18:40;;;;;;;23.60;15.60;;;;;;;20.94;87.55;98980.56;5078630;28;20078;-66
2022/06/10 02:21:16;;;;;;;17.35;15.00;;;;;;;20.91;88.27;98973.81;5078163;28;20095;-67
2022/06/10 02:23:47;;;;;;;20.15;15.30;;;;;;;20.86;87.79;98971.06;5077977;28;20039;-66
2022/06/10 02:26:15;;;;;;;20.40;15.27;;;;;;;20.86;88.28;98968.34;5082010;28;20055;-66
2022/06/10 02:28:44;;;;;;;20.05;15.55;;;;;;;20.90;87.60;98972.19;5082587;28;20043;-67
2022/06/10 02:31:26;;;;;;;20.40;15.48;;;;;;;20.61;89.00;98949.13;5078825;28;20097;-66
2022/06/10 02:33:51;;;;;;;21.40;15.60;;;;;;;20.72;88.82;98985.88;5079497;28;20540;-66
2022/06/10 02:36:26;;;;;;;22.85;15.43;;;;;;;20.84;88.28;98985.81;5077037;28;20075;-66
2022/06/10 02:38:54;;;;;;;23.80;15.43;;;;;;;20.97;87.80;98997.03;5077247;28;20032;-66
2022/06/10 02:41:35;;;;;;;21.85;15.23;;;;;;;21.07;86.95;98998.25;5075703;28;20074;-66
2022/06/10 02:44:28;;;;;;;23.88;15.18;;;;;;;21.08;87.03;99000.69;5074664;28;20029;-66
2022/06/10 02:47:40;;;;;;;18.73;14.65;;;;;;;21.19;87.32;99004.34;5017253;28;20058;-66
2022/06/10 02:50:09;;;;;;;19.40;14.73;;;;;;;21.19;87.40;99009.72;5075329;28;20021;-66
2022/06/10 02:52:36;;;;;;;19.42;14.65;;;;;;;21.17;86.83;99001.88;5077987;28;20108;-66
2022/06/10 02:55:06;;;;;;;19.50;14.38;;;;;;;21.18;87.49;99010.78;5081142;28;20092;-66
2022/06/10 03:03:30;;;;;;;18.75;15.13;;;;;;;21.32;86.50;99028.25;5078086;28;20051;-66
2022/06/10 03:06:29;;;;;;;17.48;14.85;;;;;;;21.30;86.08;99030.38;5075453;28;20029;-66
2022/06/10 03:09:21;;;;;;;18.80;14.13;;;;;;;21.17;86.40;99025.31;5048265;28;20449;-66
2022/06/10 03:12:30;;;;;;;17.75;14.68;;;;;;;21.14;86.60;99031.19;5058118;28;20125;-66
2022/06/10 03:15:05;;;;;;;23.23;16.75;;;;;;;21.07;86.70;99033.25;5042224;28;20101;-66
2022/06/10 03:18:08;;;;;;;25.05;15.30;;;;;;;20.96;87.12;99021.50;5057034;28;20409;-66
2022/06/10 03:21:10;;;;;;;20.88;16.10;;;;;;;20.97;88.28;99023.97;5019428;28;20087;-66
2022/06/10 03:23:58;;;;;;;21.90;15.68;;;;;;;20.95;88.93;99028.78;5043974;28;20032;-66
2022/06/10 03:26:44;;;;;;;23.77;15.80;;;;;;;21.05;88.87;99044.25;5058371;28;20036;-66
2022/06/10 03:29:19;;;;;;;24.83;15.27;;;;;;;21.17;88.08;99044.16;5055956;28;20230;-66
2022/06/10 03:31:51;;;;;;;22.58;16.08;;;;;;;21.20;87.78;99051.72;5057655;28;20037;-66
2022/06/10 03:34:37;;;;;;;22.48;15.35;;;;;;;21.15;87.92;99047.09;5056864;28;20108;-66
2022/06/10 03:37:06;;;;;;;17.52;15.15;;;;;;;21.14;87.15;99052.72;5057211;28;20325;-66
2022/06/10 03:39:32;;;;;;;18.13;15.00;;;;;;;20.99;87.33;99043.38;5057673;28;20139;-66
2022/06/10 03:42:10;;;;;;;23.30;16.63;;;;;;;20.86;87.13;99051.78;5057692;28;20060;-66
2022/06/10 03:44:37;;;;;;;22.92;17.00;;;;;;;20.72;88.58;99053.13;5058090;28;20265;-66
2022/06/10 03:47:05;;;;;;;20.00;15.80;;;;;;;20.68;87.56;99060.88;5056189;28;20036;-66
2022/06/10 03:49:40;;;;;;;22.40;15.93;;;;;;;20.76;87.88;99070.41;5056081;28;20086;-66
2022/06/10 03:52:06;;;;;;;23.80;16.52;;;;;;;20.86;88.97;99067.09;5057043;28;20030;-66
2022/06/10 03:54:31;;;;;;;23.98;16.08;;;;;;;20.84;88.66;99039.63;5056440;28;20352;-66
2022/06/10 03:56:57;;;;;;;21.00;15.93;;;;;;;21.20;88.05;99068.69;5057281;28;20341;-66
2022/06/10 03:59:23;;;;;;;21.70;15.75;;;;;;;21.37;85.27;99073.28;5056739;28;20034;-67
2022/06/10 04:01:48;;;;;;;19.92;15.50;;;;;;;21.37;84.51;99071.38;5056648;28;20075;-66
2022/06/10 04:04:14;;;;;;;20.67;15.15;;;;;;;21.40;83.76;99073.59;5056901;28;20199;-66
2022/06/10 04:06:39;;;;;;;23.00;15.73;;;;;;;21.48;83.79;99073.16;5055277;28;20024;-66
2022/06/10 04:09:05;;;;;;;23.30;15.10;;;;;;;21.53;83.63;99080.50;5069403;28;20433;-66
2022/06/10 04:11:30;;;;;;;19.85;14.88;;;;;;;21.59;82.61;99082.19;5075811;28;20028;-66
2022/06/10 04:13:55;;;;;;;20.55;14.85;;;;;;;21.60;81.21;99076.56;5076659;28;20317;-66
2022/06/10 04:16:21;;;;;;;22.67;16.33;;;;;;;21.52;83.28;99074.28;5076233;28;20317;-66
2022/06/10 04:18:46;;;;;;;20.13;16.27;;;;;;;21.31;82.87;99064.31;5078071;28;20397;-66
2022/06/10 04:21:12;;;;;;;21.45;17.20;;;;;;;21.24;83.54;99059.09;5075144;28;20082;-66
2022/06/10 04:23:37;;;;;;;26.27;17.88;;;;;;;20.88;84.93;99067.69;5075602;28;20039;-66
2022/06/10 04:26:03;;;;;;;22.83;17.65;;;;;;;20.92;85.30;99069.63;5076992;28;20035;-66
2022/06/10 04:28:29;;;;;;;21.77;17.17;;;;;;;21.09;85.00;99066.09;5074938;28;20266;-66
2022/06/10 04:30:55;;;;;;;22.30;17.77;;;;;;;21.04;83.79;99072.22;5076915;28;20045;-66
2022/06/10 04:33:21;;;;;;;22.02;16.30;;;;;;;21.02;84.71;99068.97;5076871;28;20060;-66
2022/06/10 04:35:49;;;;;;;28.90;17.77;;;;;;;21.02;85.48;99063.59;5076050;28;20416;-66
2022/06/10 04:38:17;;;;;;;22.35;17.95;;;;;;;21.07;84.44;99065.53;5073936;28;20070;-66
2022/06/10 04:40:42;;;;;;;21.35;17.77;;;;;;;20.92;85.70;99060.75;5076132;28;20407;-66
2022/06/10 04:43:09;;;;;;;19.85;17.15;;;;;;;20.88;86.63;99065.81;5077170;28;20103;-66
2022/06/10 04:45:51;;;;;;;20.42;17.73;;;;;;;20.81;87.09;99075.09;5080823;28;20133;-66
2022/06/10 04:48:17;;;;;;;23.27;17.75;;;;;;;21.08;85.96;99067.16;5080918;28;20036;-66
2022/06/10 04:50:45;;;;;;;21.77;17.33;;;;;;;20.93;85.50;99068.56;5079849;28;20735;-67
2022/06/10 04:53:11;;;;;;;22.85;16.48;;;;;;;20.82;85.05;99066.78;5079762;28;20043;-66
2022/06/10 04:55:37;;;;;;;20.38;15.63;;;;;;;21.19;84.28;99077.84;5080628;28;20039;-66
2022/06/10 04:58:03;;;;;;;20.75;16.63;;;;;;;21.19;83.00;99074.34;5080474;28;20256;-66
2022/06/10 05:00:39;;;;;;;18.73;15.73;;;;;;;21.20;81.55;99078.66;5079356;28;20032;-66
2022/06/10 05:03:06;;;;;;;20.60;16.05;;;;;;;21.06;81.88;99069.28;5079518;28;20039;-66
2022/06/10 05:05:32;;;;;;;19.45;15.23;;;;;;;21.08;82.07;99075.25;5080669;28;20078;-66
2022/06/10 05:07:57;;;;;;;19.13;15.70;;;;;;;20.96;81.70;99046.56;5078003;28;20271;-66
2022/06/10 05:10:24;;;;;;;16.60;14.80;;;;;;;21.29;82.89;99082.59;5061825;28;20264;-66
2022/06/10 05:12:50;;;;;;;18.08;15.85;;;;;;;21.22;81.95;99087.31;5080471;28;20048;-66
2022/06/10 05:15:20;;;;;;;20.80;15.70;;;;;;;21.25;81.32;99090.34;5079275;28;20032;-66
2022/06/10 05:17:48;;;;;;;17.80;15.20;;;;;;;21.37;82.63;99098.31;5080369;28;20041;-66
2022/06/10 05:20:21;;;;;;;19.13;15.68;;;;;;;21.53;82.01;99102.03;5082203;28;20029;-66
2022/06/10 05:22:47;;;;;;;20.58;16.65;;;;;;;21.65;81.59;99092.78;5082764;28;20096;-66
2022/06/10 05:25:12;;;;;;;19.40;14.82;;;;;;;21.85;80.59;99104.91;5084254;28;20035;-66
2022/06/10 05:27:38;;;;;;;20.17;15.32;;;;;;;21.99;79.74;99109.66;5084051;28;20044;-67
2022/06/10 05:30:06;;;;;;;18.77;14.32;;;;;;;22.04;79.40;99106.25;5084397;28;20378;-67
2022/06/10 05:32:31;;;;;;;23.73;16.13;;;;;;;22.23;78.77;99117.53;5084103;28;20045;-66
2022/06/10 05:34:57;;;;;;;17.77;15.45;;;;;;;22.28;79.19;99115.69;5084152;28;20048;-66
2022/06/10 05:37:25;;;;;;;19.88;15.68;;;;;;;22.38;76.78;99125.78;5083754;28;20314;-66
2022/06/10 05:39:52;;;;;;;18.67;14.95;;;;;;;22.16;78.68;99116.91;5084109;28;20283;-66
2022/06/10 05:42:18;;;;;;;20.13;16.23;;;;;;;21.90;79.09;99123.84;5083935;28;20058;-66
2022/06/10 05:44:46;;;;;;;19.90;15.57;;;;;;;21.92;79.46;99110.94;5083986;28;20078;-66
2022/06/10 05:47:19;;;;;;;21.40;15.30;;;;;;;22.06;78.14;99116.78;5083966;28;20074;-66
2022/06/10 05:49:47;;;;;;;17.00;14.68;;;;;;;22.04;78.06;99111.66;5084010;28;20036;-66
2022/06/10 05:52:15;;;;;;;20.58;15.93;;;;;;;22.05;78.36;99115.16;5083899;28;20093;-66
2022/06/10 05:54:43;;;;;;;20.75;15.93;;;;;;;21.81;79.13;99117.22;5082477;28;20032;-66
2022/06/10 05:57:09;;;;;;;17.60;15.02;;;;;;;21.88;77.67;99123.28;5065544;28;20041;-66
2022/06/10 05:59:35;;;;;;;16.90;14.60;;;;;;;21.79;78.21;99122.88;5083889;28;20082;-66
2022/06/10 06:02:04;;;;;;;19.48;14.57;;;;;;;21.87;78.09;99122.47;5084113;28;20060;-66
2022/06/10 06:04:29;;;;;;;23.73;16.30;;;;;;;21.77;79.25;99119.59;5084615;28;20292;-66
2022/06/10 06:06:55;;;;;;;23.85;15.48;;;;;;;21.72;79.50;99114.16;5083922;28;20036;-66
2022/06/10 06:09:21;;;;;;;18.05;15.75;;;;;;;21.97;79.23;99109.09;5084289;28;20051;-66
2022/06/10 06:11:48;;;;;;;21.25;14.95;;;;;;;22.15;76.28;99101.78;5084255;28;20047;-66
2022/06/10 06:14:15;;;;;;;17.88;15.60;;;;;;;22.28;76.67;99099.50;5080648;28;20219;-66
2022/06/10 06:16:41;;;;;;;20.15;14.95;;;;;;;22.81;75.07;99094.38;5060936;28;20050;-66
2022/06/10 06:19:06;;;;;;;17.92;15.52;;;;;;;23.30;74.18;99103.13;5079055;28;20337;-66
2022/06/10 06:21:31;;;;;;;20.98;14.52;;;;;;;23.45;71.55;99103.22;5078189;28;20167;-66
2022/06/10 06:23:58;;;;;;;19.95;14.98;;;;;;;23.33;71.38;99097.19;5078468;28;20020;-66
2022/06/10 06:26:24;;;;;;;18.80;15.68;;;;;;;23.47;70.22;99098.38;5078070;28;20321;-66
2022/06/10 06:28:50;;;;;;;18.35;14.52;;;;;;;23.34;70.66;99098.00;5079082;28;20103;-66
2022/06/10 06:31:15;;;;;;;20.88;14.85;;;;;;;23.09;72.53;99099.47;5077412;28;20032;-67
2022/06/10 06:33:44;;;;;;;24.02;18.10;;;;;;;23.10;70.66;99113.78;5083178;28;20087;-66
2022/06/10 06:36:18;;;;;;;27.10;18.40;;;;;;;22.79;71.73;99108.09;5081579;28;20032;-67
2022/06/10 06:38:43;;;;;;;27.05;17.05;;;;;;;22.88;72.15;99119.25;5082381;28;20039;-67
2022/06/10 06:41:11;;;;;;;25.13;17.77;;;;;;;22.81;74.19;99115.97;5083268;28;20357;-66
2022/06/10 06:43:36;;;;;;;25.45;18.70;;;;;;;22.46;73.39;99113.72;5076916;28;20350;-66
2022/06/10 06:46:02;;;;;;;25.50;18.20;;;;;;;22.44;77.11;99127.47;5061372;28;20021;-67
2022/06/10 06:48:27;;;;;;;20.35;16.52;;;;;;;22.08;78.55;99123.56;5078446;28;20412;-67
2022/06/10 06:50:53;;;;;;;20.65;16.55;;;;;;;22.51;76.51;99136.16;5077648;28;20039;-66
2022/06/10 06:53:18;;;;;;;27.23;18.75;;;;;;;21.95;76.44;99132.00;5076145;28;20033;-67
2022/06/10 06:55:44;;;;;;;29.40;17.95;;;;;;;21.87;78.64;99132.44;5076629;28;20237;-66
2022/06/10 06:58:16;;;;;;;22.33;16.88;;;;;;;22.08;78.46;99136.22;5078177;28;20048;-66
2022/06/10 07:00:42;;;;;;;23.02;16.55;;;;;;;22.19;76.99;99128.00;5078662;28;20095;-66
2022/06/10 07:03:08;;;;;;;25.42;16.50;;;;;;;22.10;77.60;99134.09;5077819;28;20051;-66
2022/06/10 07:05:35;;;;;;;26.63;18.27;;;;;;;22.03;77.40;99133.47;5076919;28;20044;-67
2022/06/10 07:08:01;;;;;;;26.27;17.95;;;;;;;22.14;76.61;99140.59;5076560;28;20045;-67
2022/06/10 07:10:27;;;;;;;24.95;16.77;;;;;;;22.32;75.54;99134.06;5080639;28;20037;-66
2022/06/10 07:12:53;;;;;;;26.92;19.30;;;;;;;22.41;75.73;99133.34;5081882;28;20233;-67
2022/06/10 07:15:21;;;;;;;26.45;18.33;;;;;;;22.47;75.51;99123.44;5078095;28;20044;-67
2022/06/10 07:17:46;;;;;;;24.33;17.42;;;;;;;22.83;73.73;99120.03;5079040;28;20044;-66
2022/06/10 07:20:20;;;;;;;23.65;17.48;;;;;;;23.16;71.80;99113.56;5076836;28;20230;-67
2022/06/10 07:22:46;;;;;;;26.13;17.23;;;;;;;23.44;71.44;99120.50;5074679;28;20100;-67
2022/06/10 07:25:12;;;;;;;26.17;18.23;;;;;;;23.64;68.64;99122.53;5077761;28;20035;-67
2022/06/10 07:27:38;;;;;;;26.15;17.67;;;;;;;24.15;67.21;99123.59;5075958;28;20044;-67
2022/06/10 07:30:05;;;;;;;21.35;16.73;;;;;;;24.51;65.63;99129.94;5079025;28;20100;-66
2022/06/10 07:32:30;;;;;;;24.75;17.60;;;;;;;24.42;66.48;99128.03;5081599;28;20036;-66
2022/06/10 07:34:56;;;;;;;24.77;17.92;;;;;;;25.06;64.17;99130.31;5079942;28;20032;-67
2022/06/10 07:37:23;;;;;;;25.30;18.38;;;;;;;24.77;65.36;99129.97;5077019;28;20036;-67
2022/06/10 07:39:49;;;;;;;28.05;18.38;;;;;;;24.64;65.34;99128.63;5078236;28;20067;-67
2022/06/10 07:42:14;;;;;;;31.25;19.33;;;;;;;24.03;67.61;99133.03;5075957;28;20032;-67
2022/06/10 07:44:40;;;;;;;30.52;20.25;;;;;;;24.01;67.85;99130.59;5077684;28;20031;-67
2022/06/10 07:47:09;;;;;;;28.38;19.85;;;;;;;24.06;69.07;99136.00;5075746;28;20032;-66
2022/06/10 07:49:36;;;;;;;39.28;20.75;;;;;;;24.18;67.19;99133.06;5077522;28;20045;-66
2022/06/10 07:52:03;;;;;;;30.30;20.45;;;;;;;24.21;67.23;99143.38;5079556;28;20341;-66
2022/06/10 07:54:29;;;;;;;28.67;19.85;;;;;;;24.50;66.10;99130.22;5081412;28;20028;-67
2022/06/10 07:56:55;;;;;;;27.45;20.30;;;;;;;24.56;64.81;99139.16;5076999;28;20309;-67
2022/06/10 07:59:21;;;;;;;29.38;21.00;;;;;;;24.38;64.40;99135.88;5077606;28;20024;-67
2022/06/10 08:01:46;;;;;;;35.70;22.98;;;;;;;23.92;68.37;99142.13;5076841;28;20071;-66
2022/06/10 08:04:12;;;;;;;36.38;22.40;;;;;;;23.55;69.35;99141.16;5077191;28;20040;-66
2022/06/10 08:06:40;;;;;;;29.73;21.52;;;;;;;23.69;69.56;99146.09;5076170;28;20045;-66
2022/06/10 08:09:05;;;;;;;39.17;21.65;;;;;;;23.65;69.41;99150.38;5076811;28;20056;-66
2022/06/10 08:11:31;;;;;;;28.67;21.30;;;;;;;23.45;69.44;99145.63;5080748;28;20071;-66
2022/06/10 08:13:56;;;;;;;33.13;22.23;;;;;;;23.49;70.20;99131.34;5080227;28;20032;-67
2022/06/10 08:16:23;;;;;;;34.17;22.23;;;;;;;23.82;68.57;99140.19;5057777;28;20031;-66
2022/06/10 08:18:50;;;;;;;28.00;20.50;;;;;;;24.16;66.53;99140.66;5073809;28;20055;-67
2022/06/10 08:24:01;;;;;;;30.30;21.23;;;;;;;24.07;66.84;99161.97;5076758;28;20036;-66
2022/06/10 08:26:28;;;;;;;34.25;22.05;;;;;;;23.96;66.94;99168.41;5075573;28;20032;-66
2022/06/10 08:28:54;;;;;;;34.80;21.17;;;;;;;23.73;68.26;99166.91;5077107;28;20056;-66
2022/06/10 08:31:21;;;;;;;34.08;23.70;;;;;;;23.62;68.52;99169.81;5075477;28;20024;-66
2022/06/10 08:33:47;;;;;;;37.28;23.80;;;;;;;23.58;69.37;99166.00;5058513;28;20032;-67
2022/06/10 08:36:13;;;;;;;37.63;25.27;;;;;;;23.40;71.39;99161.81;5076211;28;20032;-66
2022/06/10 08:38:42;;;;;;;39.90;26.17;;;;;;;23.58;71.82;99160.59;5075390;28;20035;-66
2022/06/10 08:41:15;;;;;;;46.45;29.55;;;;;;;23.74;71.34;99162.31;5074019;28;20032;-67
2022/06/10 08:43:59;;;;;;;37.20;24.58;;;;;;;23.71;70.50;99160.16;5075807;28;20267;-67
2022/06/10 08:46:32;;;;;;;39.15;24.77;;;;;;;24.25;68.91;99160.69;5076758;28;20275;-67
2022/06/10 08:49:19;;;;;;;34.47;22.60;;;;;;;24.20;66.99;99152.56;5079850;28;20036;-66
2022/06/10 08:52:14;;;;;;;43.15;26.25;;;;;;;24.68;65.94;99137.81;5079860;28;20096;-66
2022/06/10 08:54:55;;;;;;;42.00;27.30;;;;;;;24.36;66.29;99145.34;5074085;28;20032;-66
2022/06/10 08:57:38;;;;;;;35.55;23.75;;;;;;;24.36;66.62;99158.88;5073749;28;20090;-67
2022/06/10 09:00:17;;;;;;;59.80;30.52;;;;;;;24.10;68.52;99166.06;5074791;28;20066;-66
2022/06/10 09:02:49;;;;;;;34.28;22.92;;;;;;;23.91;69.24;99159.44;5075665;28;20032;-66
2022/06/10 09:05:21;;;;;;;32.10;22.45;;;;;;;23.64;69.10;99163.09;5072868;28;20372;-67
2022/06/10 09:07:50;;;;;;;34.35;22.30;;;;;;;23.86;69.22;99154.81;5076301;28;20096;-67
2022/06/10 09:10:24;;;;;;;34.53;21.75;;;;;;;24.01;68.03;99162.22;5078152;28;20100;-67
2022/06/10 09:13:13;;;;;;;32.85;21.77;;;;;;;24.26;66.63;99158.81;5062394;28;20264;-67
2022/06/10 09:15:47;;;;;;;33.05;22.30;;;;;;;24.19;67.32;99151.75;5076966;28;20036;-66
2022/06/10 09:18:19;;;;;;;;;;;;;;;24.08;66.98;99143.88;5079586;28;20039;-66
2022/06/10 09:20:56;;;;;;;30.42;21.30;;;;;;;23.85;67.89;99145.91;5081730;28;19909;-66
2022/06/10 09:23:43;;;;;;;34.10;23.05;;;;;;;24.20;67.04;99147.16;5081203;28;20108;-67
2022/06/10 09:26:25;;;;;;;36.97;24.58;;;;;;;24.38;66.32;99140.47;5079569;28;20044;-67
2022/06/10 09:28:51;;;;;;;34.72;22.90;;;;;;;24.57;65.13;99148.91;5082649;28;20040;-67
2022/06/10 09:31:21;;;;;;;34.38;21.50;;;;;;;24.91;63.25;99139.19;5085110;28;20031;-67
2022/06/10 09:34:16;;;;;;;31.20;22.20;;;;;;;24.75;63.10;99129.44;5085103;28;20041;-67
2022/06/10 09:36:42;;;;;;;31.83;21.10;;;;;;;24.87;61.96;99130.00;5041993;28;20108;-67
2022/06/10 09:42:32;;;;;;;30.17;21.58;;;;;;;25.11;61.51;99125.72;5085255;28;20070;-67
2022/06/10 09:45:07;;;;;;;32.63;23.77;;;;;;;25.01;63.81;99127.63;5034164;28;20044;-67
2022/06/10 09:47:35;;;;;;;29.60;22.20;;;;;;;24.59;64.45;99125.09;5084981;28;20112;-67
2022/06/10 09:50:13;;;;;;;29.00;22.05;;;;;;;24.69;62.51;99122.41;5084936;28;20372;-67
2022/06/10 09:52:58;;;;;;;29.95;21.58;;;;;;;24.71;63.50;99114.81;5084599;28;20337;-67
2022/06/10 09:55:29;;;;;;;30.55;22.80;;;;;;;24.49;65.16;99134.81;5085040;28;20040;-67
2022/06/10 09:58:32;;;;;;;36.72;23.80;;;;;;;24.80;64.77;99119.44;5060763;28;20217;-66
2022/06/10 10:01:31;;;;;;;32.15;22.08;;;;;;;25.08;63.21;99128.16;5083376;28;20036;-66
2022/06/10 10:04:42;;;;;;;25.60;20.98;;;;;;;25.04;60.94;99127.06;5081041;28;20310;-67
2022/06/10 10:07:32;;;;;;;29.67;21.83;;;;;;;25.22;61.92;99123.00;5084349;28;20020;-67
2022/06/10 10:10:22;;;;;;;26.73;19.60;;;;;;;25.12;61.38;99121.09;5081105;28;20049;-67
2022/06/10 10:13:06;;;;;;;31.17;22.55;;;;;;;25.14;62.58;99124.34;5064270;28;20024;-67
2022/06/10 10:15:57;;;;;;;28.85;21.35;;;;;;;25.10;61.72;99115.97;5083213;28;20048;-67
2022/06/10 10:18:33;;;;;;;29.17;20.75;;;;;;;25.09;61.72;99114.34;5078817;28;20278;-67
2022/06/10 10:21:08;;;;;;;27.80;21.25;;;;;;;25.28;60.66;99113.78;5075981;28;20248;-67
2022/06/10 10:23:52;;;;;;;22.20;18.17;;;;;;;25.27;59.99;99112.16;5082688;28;20086;-67
2022/06/10 10:26:20;;;;;;;30.42;21.95;;;;;;;25.21;60.42;99107.81;5079099;28;20276;-67
2022/06/10 10:28:50;;;;;;;27.50;20.63;;;;;;;25.28;59.83;99100.22;5063302;28;20045;-67
2022/06/10 10:31:23;;;;;;;24.10;19.83;;;;;;;25.25;58.88;99103.47;5081994;28;20369;-67
2022/06/10 10:33:49;;;;;;;24.13;18.70;;;;;;;25.26;58.39;99110.53;5082953;28;20036;-66
2022/06/10 10:36:32;;;;;;;24.10;19.83;;;;;;;25.52;59.57;99098.53;5080553;28;20025;-67
2022/06/10 10:39:13;;;;;;;26.77;20.30;;;;;;;25.14;59.93;99097.25;5078964;28;20044;-67
2022/06/10 10:41:43;;;;;;;31.02;21.98;;;;;;;25.24;60.97;99102.66;5078051;28;20043;-67
2022/06/10 10:44:33;;;;;;;30.83;22.27;;;;;;;25.43;59.67;99106.44;5076971;28;20029;-67
2022/06/10 10:47:01;;;;;;;27.55;22.67;;;;;;;25.35;60.34;99095.34;5077955;28;20295;-67
2022/06/10 10:49:34;;;;;;;27.67;20.63;;;;;;;25.06;60.69;99086.97;5076933;28;20036;-67
2022/06/10 10:52:08;;;;;;;26.65;21.20;;;;;;;25.25;60.62;99095.34;5075663;28;20034;-66
2022/06/10 10:54:36;;;;;;;32.95;20.67;;;;;;;25.10;61.42;99094.28;5079430;28;20040;-67
2022/06/10 10:57:14;;;;;;;29.73;22.77;;;;;;;25.05;63.28;99085.34;5077548;28;20355;-67
2022/06/10 10:59:42;;;;;;;29.42;22.63;;;;;;;25.34;62.89;99069.31;5078059;28;20043;-67
2022/06/10 11:02:25;;;;;;;30.02;23.98;;;;;;;25.60;63.79;99083.63;5078123;28;20057;-67
2022/06/10 11:04:51;;;;;;;30.30;23.97;;;;;;;25.22;61.92;99082.34;5082560;28;20051;-67
2022/06/10 11:07:21;;;;;;;28.23;21.92;;;;;;;25.27;60.86;99076.94;5080366;28;20462;-67
2022/06/10 11:09:51;;;;;;;28.80;21.67;;;;;;;25.02;61.56;99078.59;5078585;28;20349;-66
2022/06/10 11:12:25;;;;;;;27.05;22.23;;;;;;;25.07;63.13;99064.22;5077344;28;20444;-67
2022/06/10 11:15:00;;;;;;;28.23;22.88;;;;;;;24.86;62.29;99068.78;5077499;28;20033;-67
2022/06/10 11:17:26;;;;;;;34.25;22.50;;;;;;;25.11;62.26;99076.13;5077640;28;20032;-67
2022/06/10 11:20:00;;;;;;;29.23;21.48;;;;;;;25.18;60.60;99067.72;5078188;28;20036;-67
2022/06/10 11:22:34;;;;;;;26.58;21.20;;;;;;;25.27;60.76;99063.38;5077503;28;20079;-67
2022/06/10 11:25:02;;;;;;;32.80;23.02;;;;;;;25.25;61.67;99062.84;5077146;28;20028;-67
2022/06/10 11:27:36;;;;;;;27.90;21.58;;;;;;;25.39;62.34;99058.47;5074182;28;20221;-67
2022/06/10 11:30:10;;;;;;;32.97;24.13;;;;;;;25.35;63.61;99058.22;5078166;28;20341;-67
2022/06/10 11:32:48;;;;;;;32.88;22.90;;;;;;;25.62;61.41;99054.31;5078188;28;20035;-67
2022/06/10 11:35:28;;;;;;;30.10;23.25;;;;;;;25.44;61.87;99051.13;5076554;28;20226;-67
2022/06/10 11:38:21;;;;;;;31.50;22.63;;;;;;;25.63;61.23;99045.09;5076325;28;20387;-67
2022/06/10 11:40:47;;;;;;;32.15;25.00;;;;;;;25.77;61.49;99041.53;5078238;28;20052;-67
2022/06/10 11:43:27;;;;;;;38.72;24.90;;;;;;;25.67;62.39;99052.44;5076322;28;20209;-67
2022/06/10 11:46:02;;;;;;;36.22;25.33;;;;;;;25.50;61.29;99049.22;5074877;28;20024;-66
2022/06/10 11:48:43;;;;;;;34.05;26.13;;;;;;;25.44;60.86;99053.84;5073955;28;20293;-67
2022/06/10 11:51:28;;;;;;;36.28;25.00;;;;;;;25.20;62.19;99065.56;5077106;28;20065;-67
2022/06/10 11:54:00;;;;;;;30.15;23.50;;;;;;;24.82;63.21;99054.97;5075606;28;20033;-67